createdAt,value
2019-04-11T00:00:59.666Z,0.00
2019-04-11T00:01:59.166Z,0.00
2019-04-11T00:02:59.133Z,0.00
2019-04-11T00:03:59.846Z,0.00
2019-04-11T00:04:59.072Z,0.00
2019-04-11T00:05:59.265Z,0.00
2019-04-11T00:07:00.175Z,0.00
2019-04-11T00:07:59.730Z,0.00
2019-04-11T00:08:58.948Z,0.00
2019-04-11T00:09:58.921Z,0.00
2019-04-11T00:10:59.617Z,0.00
2019-04-11T00:11:59.777Z,0.00
2019-04-11T00:12:59.121Z,0.00
2019-04-11T00:13:59.790Z,0.00
2019-04-11T00:14:58.759Z,0.00
2019-04-11T00:15:59.189Z,0.00
2019-04-11T00:16:58.697Z,0.00
2019-04-11T00:17:58.665Z,0.00
2019-04-11T00:18:58.896Z,0.00
2019-04-11T00:19:58.603Z,0.00
2019-04-11T00:20:58.570Z,0.00
2019-04-11T00:21:59.439Z,0.00
2019-04-11T00:22:59.649Z,0.00
2019-04-11T00:23:58.665Z,0.00
2019-04-11T00:24:58.930Z,0.00
2019-04-11T00:25:58.413Z,0.00
2019-04-11T00:26:58.380Z,0.00
2019-04-11T00:27:59.376Z,0.00
2019-04-11T00:28:58.393Z,0.00
2019-04-11T00:29:58.291Z,0.00
2019-04-11T00:30:58.805Z,0.00
2019-04-11T00:31:58.228Z,0.00
2019-04-11T00:32:58.196Z,0.00
2019-04-11T00:33:58.446Z,0.00
2019-04-11T00:34:58.135Z,0.00
2019-04-11T00:35:58.102Z,0.00
2019-04-11T00:36:58.897Z,0.00
2019-04-11T00:37:59.243Z,0.00
2019-04-11T00:38:58.007Z,0.00
2019-04-11T00:39:57.975Z,0.00
2019-04-11T00:40:57.944Z,0.00
2019-04-11T00:41:58.637Z,0.00
2019-04-11T00:42:58.885Z,0.00
2019-04-11T00:43:58.703Z,0.00
2019-04-11T00:44:59.016Z,0.00
2019-04-11T00:45:58.169Z,0.00
2019-04-11T00:46:58.507Z,0.00
2019-04-11T00:47:57.725Z,0.00
2019-04-11T00:48:57.769Z,0.00
2019-04-11T00:49:58.803Z,0.00
2019-04-11T00:50:57.628Z,0.00
2019-04-11T00:51:58.316Z,0.00
2019-04-11T00:52:58.013Z,0.00
2019-04-11T00:53:58.318Z,0.00
2019-04-11T00:54:57.505Z,0.00
2019-04-11T00:55:57.472Z,0.00
2019-04-11T00:56:57.443Z,0.00
2019-04-11T00:57:57.409Z,0.00
2019-04-11T00:58:58.308Z,0.00
2019-04-11T00:59:58.284Z,0.00
2019-04-11T01:00:57.575Z,0.00
2019-04-11T01:01:57.286Z,0.00
2019-04-11T01:02:57.941Z,0.00
2019-04-11T01:03:57.221Z,0.00
2019-04-11T01:04:57.195Z,0.00
2019-04-11T01:05:58.273Z,0.00
2019-04-11T01:06:57.136Z,0.00
2019-04-11T01:07:57.742Z,0.00
2019-04-11T01:08:57.067Z,0.00
2019-04-11T01:09:57.033Z,0.00
2019-04-11T01:10:57.393Z,0.00
2019-04-11T01:11:56.981Z,0.00
2019-04-11T01:12:56.942Z,0.00
2019-04-11T01:13:57.335Z,0.00
2019-04-11T01:14:57.375Z,0.00
2019-04-11T01:15:56.849Z,0.00
2019-04-11T01:16:57.010Z,0.00
2019-04-11T01:17:57.923Z,0.00
2019-04-11T01:18:56.754Z,0.00
2019-04-11T01:19:57.355Z,0.00
2019-04-11T01:20:56.710Z,0.00
2019-04-11T01:21:57.865Z,0.00
2019-04-11T01:22:56.630Z,0.00
2019-04-11T01:23:57.516Z,0.00
2019-04-11T01:24:57.780Z,0.00
2019-04-11T01:25:56.995Z,0.00
2019-04-11T01:26:57.366Z,0.00
2019-04-11T01:27:56.486Z,0.00
2019-04-11T01:28:56.438Z,0.00
2019-04-11T01:29:56.408Z,0.00
2019-04-11T01:30:57.533Z,0.00
2019-04-11T01:31:56.344Z,0.00
2019-04-11T01:32:56.952Z,0.00
2019-04-11T01:33:56.284Z,0.00
2019-04-11T01:34:57.152Z,0.00
2019-04-11T01:35:57.413Z,0.00
2019-04-11T01:36:56.188Z,0.00
2019-04-11T01:37:56.169Z,0.00
2019-04-11T01:38:56.918Z,0.00
2019-04-11T01:39:57.200Z,0.00
2019-04-11T01:40:56.187Z,0.00
2019-04-11T01:41:56.036Z,0.00
2019-04-11T01:42:55.999Z,0.00
2019-04-11T01:44:00.940Z,0.00
2019-04-11T01:44:56.924Z,0.00
2019-04-11T01:45:56.023Z,0.00
2019-04-11T01:46:56.305Z,0.00
2019-04-11T01:47:55.843Z,0.00
2019-04-11T01:48:55.810Z,0.00
2019-04-11T01:49:56.614Z,0.00
2019-04-11T01:50:56.950Z,0.00
2019-04-11T01:51:56.054Z,0.00
2019-04-11T01:52:55.685Z,0.00
2019-04-11T01:53:55.652Z,0.00
2019-04-11T01:54:56.400Z,0.00
2019-04-11T01:55:56.800Z,0.00
2019-04-11T01:56:55.807Z,0.00
2019-04-11T01:57:55.523Z,0.00
2019-04-11T01:58:55.492Z,0.00
2019-04-11T01:59:55.625Z,0.00
2019-04-11T02:00:56.658Z,0.00
2019-04-11T02:01:55.397Z,0.00
2019-04-11T02:02:55.367Z,0.00
2019-04-11T02:03:55.401Z,0.00
2019-04-11T02:04:56.419Z,0.00
2019-04-11T02:05:55.271Z,0.00
2019-04-11T02:06:56.239Z,0.00
2019-04-11T02:07:55.350Z,0.00
2019-04-11T02:08:55.628Z,0.00
2019-04-11T02:09:55.142Z,0.00
2019-04-11T02:10:55.111Z,0.00
2019-04-11T02:11:56.157Z,0.00
2019-04-11T02:12:55.305Z,0.00
2019-04-11T02:14:05.116Z,0.00
2019-04-11T02:14:55.575Z,0.00
2019-04-11T02:15:56.838Z,0.00
2019-04-11T02:16:54.923Z,0.00
2019-04-11T02:17:55.072Z,0.00
2019-04-11T02:18:56.067Z,0.00
2019-04-11T02:19:54.827Z,0.00
2019-04-11T02:20:55.731Z,0.00
2019-04-11T02:21:54.893Z,0.00
2019-04-11T02:22:55.014Z,0.00
2019-04-11T02:23:55.277Z,0.00
2019-04-11T02:24:54.668Z,0.00
2019-04-11T02:25:54.636Z,0.00
2019-04-11T02:26:54.652Z,0.00
2019-04-11T02:27:54.577Z,0.00
2019-04-11T02:28:55.212Z,0.00
2019-04-11T02:29:55.149Z,0.00
2019-04-11T02:30:56.262Z,0.00
2019-04-11T02:31:54.962Z,0.00
2019-04-11T02:32:55.959Z,0.00
2019-04-11T02:33:55.296Z,0.00
2019-04-11T02:34:57.130Z,0.00
2019-04-11T02:35:54.560Z,0.00
2019-04-11T02:36:56.417Z,0.00
2019-04-11T02:37:54.897Z,0.00
2019-04-11T02:38:57.567Z,0.00
2019-04-11T02:39:55.954Z,0.00
2019-04-11T02:40:55.062Z,0.00
2019-04-11T02:41:54.951Z,0.00
2019-04-11T02:42:54.911Z,0.00
2019-04-11T02:43:54.997Z,0.00
2019-04-11T02:45:09.253Z,0.00
2019-04-11T02:46:09.021Z,0.00
2019-04-11T02:47:01.750Z,0.00
2019-04-11T02:47:56.331Z,0.00
2019-04-11T02:48:54.529Z,0.00
2019-04-11T02:49:55.044Z,0.00
2019-04-11T02:50:54.279Z,0.00
2019-04-11T02:51:55.733Z,0.00
2019-04-11T02:52:54.033Z,0.00
2019-04-11T02:53:54.867Z,0.00
2019-04-11T02:54:54.526Z,0.00
2019-04-11T02:55:54.262Z,0.00
2019-04-11T02:56:54.790Z,0.00
2019-04-11T02:57:54.315Z,0.00
2019-04-11T02:58:54.573Z,0.00
2019-04-11T02:59:54.295Z,0.00
2019-04-11T03:00:55.405Z,0.00
2019-04-11T03:01:53.503Z,0.00
2019-04-11T03:02:53.469Z,0.00
2019-04-11T03:03:54.083Z,0.00
2019-04-11T03:04:55.390Z,0.00
2019-04-11T03:05:53.780Z,0.00
2019-04-11T03:06:53.358Z,0.00
2019-04-11T03:07:54.067Z,0.00
2019-04-11T03:08:54.889Z,0.00
2019-04-11T03:09:53.752Z,0.00
2019-04-11T03:10:53.775Z,0.00
2019-04-11T03:11:54.703Z,0.00
2019-04-11T03:12:54.457Z,0.00
2019-04-11T03:13:54.677Z,0.00
2019-04-11T03:15:12.628Z,0.00
2019-04-11T03:16:05.314Z,0.00
2019-04-11T03:17:02.510Z,0.00
2019-04-11T03:17:57.658Z,0.00
2019-04-11T03:19:10.428Z,0.00
2019-04-11T03:20:04.395Z,0.00
2019-04-11T03:20:56.926Z,0.00
2019-04-11T03:21:54.587Z,0.00
2019-04-11T03:22:57.340Z,0.00
2019-04-11T03:23:52.803Z,0.00
2019-04-11T03:24:53.484Z,0.00
2019-04-11T03:25:54.217Z,0.00
2019-04-11T03:26:54.964Z,0.00
2019-04-11T03:27:54.033Z,0.00
2019-04-11T03:28:56.536Z,0.00
2019-04-11T03:29:53.848Z,0.00
2019-04-11T03:31:17.964Z,0.00
2019-04-11T03:35:37.739Z,0.00
2019-04-11T03:36:59.932Z,0.00
2019-04-11T03:37:37.312Z,0.00
2019-04-11T03:38:15.293Z,0.00
2019-04-11T03:39:11.926Z,0.00
2019-04-11T03:40:13.100Z,0.00
2019-04-11T03:41:12.138Z,0.00
2019-04-11T03:42:11.118Z,0.00
2019-04-11T03:43:06.381Z,0.00
2019-04-11T03:44:00.344Z,0.00
2019-04-11T03:45:15.310Z,0.00
2019-04-11T03:46:11.240Z,0.00
2019-04-11T03:47:10.149Z,0.00
2019-04-11T03:48:06.087Z,0.00
2019-04-11T03:49:01.216Z,0.00
2019-04-11T03:50:00.312Z,0.00
2019-04-11T03:50:54.575Z,0.00
2019-04-11T03:51:52.991Z,0.00
2019-04-11T03:52:53.739Z,0.00
2019-04-11T03:53:53.431Z,0.00
2019-04-11T03:54:51.815Z,0.00
2019-04-11T03:55:51.780Z,0.00
2019-04-11T03:56:53.454Z,0.00
2019-04-11T03:57:53.644Z,0.00
2019-04-11T03:58:53.366Z,0.00
2019-04-11T03:59:52.058Z,0.00
2019-04-11T04:00:53.543Z,0.00
2019-04-11T04:01:51.603Z,0.00
2019-04-11T04:02:52.557Z,0.00
2019-04-11T04:03:53.435Z,0.00
2019-04-11T04:04:53.494Z,0.00
2019-04-11T04:05:52.861Z,0.00
2019-04-11T04:06:52.695Z,0.00
2019-04-11T04:07:52.466Z,0.00
2019-04-11T04:08:53.025Z,0.00
2019-04-11T04:09:53.621Z,0.00
2019-04-11T04:10:51.855Z,0.00
2019-04-11T04:11:51.399Z,0.00
2019-04-11T04:12:51.831Z,0.00
2019-04-11T04:13:51.772Z,0.00
2019-04-11T04:14:51.619Z,0.00
2019-04-11T04:15:59.977Z,0.00
2019-04-11T04:16:54.838Z,0.00
2019-04-11T04:17:52.047Z,5.63
2019-04-11T04:18:51.749Z,5.63
2019-04-11T04:19:51.808Z,5.63
2019-04-11T04:20:51.228Z,5.63
2019-04-11T04:21:51.162Z,5.63
2019-04-11T04:22:52.419Z,5.63
2019-04-11T04:23:51.902Z,5.63
2019-04-11T04:24:52.892Z,11.25
2019-04-11T04:25:51.676Z,11.25
2019-04-11T04:26:52.450Z,11.25
2019-04-11T04:27:51.300Z,11.25
2019-04-11T04:28:51.308Z,16.88
2019-04-11T04:29:55.004Z,16.88
2019-04-11T04:30:51.719Z,16.88
2019-04-11T04:31:50.921Z,16.88
2019-04-11T04:32:52.082Z,22.50
2019-04-11T04:33:51.409Z,22.50
2019-04-11T04:34:51.189Z,22.50
2019-04-11T04:35:51.759Z,28.13
2019-04-11T04:36:51.500Z,28.13
2019-04-11T04:37:51.719Z,28.13
2019-04-11T04:38:50.406Z,33.75
2019-04-11T04:40:12.122Z,33.75
2019-04-11T04:41:05.715Z,39.38
2019-04-11T04:41:58.999Z,39.38
2019-04-11T04:42:53.289Z,39.38
2019-04-11T04:43:50.670Z,45.00
2019-04-11T04:44:50.982Z,45.00
2019-04-11T04:46:08.746Z,50.63
2019-04-11T04:47:00.134Z,50.63
2019-04-11T04:47:56.886Z,56.25
2019-04-11T04:48:51.500Z,56.25
2019-04-11T04:49:50.055Z,61.88
2019-04-11T04:50:52.336Z,67.50
2019-04-11T04:51:51.135Z,67.50
2019-04-11T04:52:51.597Z,73.13
2019-04-11T04:53:50.313Z,78.75
2019-04-11T04:54:49.934Z,84.38
2019-04-11T04:55:50.671Z,84.38
2019-04-11T04:56:50.309Z,84.38
2019-04-11T04:57:51.083Z,84.38
2019-04-11T04:58:50.798Z,90.00
2019-04-11T04:59:49.853Z,95.63
2019-04-11T05:00:51.970Z,101.25
2019-04-11T05:01:50.868Z,106.88
2019-04-11T05:02:50.336Z,112.50
2019-04-11T05:03:50.945Z,112.50
2019-04-11T05:04:49.671Z,118.13
2019-04-11T05:05:51.068Z,123.75
2019-04-11T05:06:50.830Z,129.38
2019-04-11T05:07:49.786Z,135.00
2019-04-11T05:08:49.459Z,140.63
2019-04-11T05:09:50.367Z,146.25
2019-04-11T05:10:49.379Z,146.25
2019-04-11T05:11:50.690Z,146.25
2019-04-11T05:12:49.315Z,151.88
2019-04-11T05:13:51.766Z,157.50
2019-04-11T05:14:49.863Z,157.50
2019-04-11T05:16:02.403Z,163.13
2019-04-11T05:16:50.424Z,168.75
2019-04-11T05:17:49.237Z,174.38
2019-04-11T05:18:49.123Z,180.00
2019-04-11T05:19:49.091Z,191.25
2019-04-11T05:20:49.069Z,196.88
2019-04-11T05:21:49.877Z,202.50
2019-04-11T05:22:49.276Z,202.50
2019-04-11T05:23:50.014Z,208.13
2019-04-11T05:24:48.930Z,213.75
2019-04-11T05:25:48.898Z,219.38
2019-04-11T05:26:50.215Z,219.38
2019-04-11T05:27:49.667Z,225.00
2019-04-11T05:28:48.892Z,225.00
2019-04-11T05:29:49.470Z,225.00
2019-04-11T05:30:49.075Z,225.00
2019-04-11T05:31:49.193Z,236.25
2019-04-11T05:32:49.316Z,230.63
2019-04-11T05:33:49.721Z,230.63
2019-04-11T05:34:49.043Z,230.63
2019-04-11T05:35:48.581Z,236.25
2019-04-11T05:36:49.820Z,303.75
2019-04-11T05:37:48.517Z,371.25
2019-04-11T05:38:48.685Z,376.88
2019-04-11T05:39:48.454Z,371.25
2019-04-11T05:40:48.428Z,382.50
2019-04-11T05:41:49.817Z,388.13
2019-04-11T05:42:53.400Z,393.75
2019-04-11T05:43:49.306Z,399.38
2019-04-11T05:44:49.677Z,416.25
2019-04-11T05:45:52.228Z,421.88
2019-04-11T05:46:55.795Z,427.50
2019-04-11T05:47:51.664Z,427.50
2019-04-11T05:48:48.180Z,421.88
2019-04-11T05:49:48.149Z,427.50
2019-04-11T05:50:51.078Z,438.75
2019-04-11T05:51:49.307Z,455.63
2019-04-11T05:52:48.290Z,466.88
2019-04-11T05:53:50.038Z,466.88
2019-04-11T05:54:49.759Z,472.50
2019-04-11T05:55:47.988Z,466.88
2019-04-11T05:56:52.041Z,472.50
2019-04-11T05:57:47.928Z,483.75
2019-04-11T05:58:47.902Z,489.38
2019-04-11T05:59:50.946Z,500.63
2019-04-11T06:00:48.931Z,523.13
2019-04-11T06:01:48.789Z,517.50
2019-04-11T06:02:49.145Z,551.25
2019-04-11T06:03:49.218Z,551.25
2019-04-11T06:04:51.934Z,551.25
2019-04-11T06:05:47.704Z,556.88
2019-04-11T06:06:47.677Z,568.13
2019-04-11T06:07:50.182Z,596.25
2019-04-11T06:08:48.249Z,607.50
2019-04-11T06:09:48.206Z,596.25
2019-04-11T06:10:48.409Z,590.63
2019-04-11T06:11:48.243Z,601.88
2019-04-11T06:12:47.517Z,618.75
2019-04-11T06:13:47.491Z,658.13
2019-04-11T06:14:47.467Z,669.38
2019-04-11T06:15:47.438Z,669.38
2019-04-11T06:16:52.014Z,669.38
2019-04-11T06:17:48.198Z,675.00
2019-04-11T06:18:48.127Z,686.25
2019-04-11T06:19:48.004Z,708.75
2019-04-11T06:20:47.310Z,720.00
2019-04-11T06:21:48.402Z,736.88
2019-04-11T06:22:47.705Z,720.00
2019-04-11T06:23:47.757Z,720.00
2019-04-11T06:24:48.204Z,736.88
2019-04-11T06:25:47.228Z,753.75
2019-04-11T06:26:47.153Z,781.88
2019-04-11T06:27:47.415Z,793.13
2019-04-11T06:28:47.338Z,793.13
2019-04-11T06:29:47.368Z,781.88
2019-04-11T06:30:47.054Z,781.88
2019-04-11T06:31:47.501Z,781.88
2019-04-11T06:32:47.823Z,787.50
2019-04-11T06:33:47.016Z,798.75
2019-04-11T06:34:46.993Z,838.13
2019-04-11T06:35:46.923Z,860.63
2019-04-11T06:36:48.184Z,888.75
2019-04-11T06:37:46.872Z,905.63
2019-04-11T06:38:47.216Z,894.38
2019-04-11T06:39:47.375Z,866.25
2019-04-11T06:40:46.796Z,849.38
2019-04-11T06:41:46.771Z,843.75
2019-04-11T06:42:47.669Z,849.38
2019-04-11T06:43:47.868Z,849.38
2019-04-11T06:44:46.696Z,843.75
2019-04-11T06:45:46.667Z,843.75
2019-04-11T06:46:52.372Z,866.25
2019-04-11T06:47:47.179Z,877.50
2019-04-11T06:48:47.676Z,871.88
2019-04-11T06:49:46.764Z,877.50
2019-04-11T06:50:47.192Z,871.88
2019-04-11T06:51:46.515Z,883.13
2019-04-11T06:52:46.500Z,900.00
2019-04-11T06:53:46.466Z,933.75
2019-04-11T06:54:47.479Z,973.13
2019-04-11T06:55:46.834Z,883.13
2019-04-11T06:56:47.484Z,860.63
2019-04-11T06:57:46.365Z,967.50
2019-04-11T06:58:46.342Z,1063.13
2019-04-11T06:59:46.317Z,1063.13
2019-04-11T07:00:47.445Z,1074.38
2019-04-11T07:01:47.496Z,1096.88
2019-04-11T07:02:46.615Z,1125.00
2019-04-11T07:03:46.925Z,1164.38
2019-04-11T07:04:46.385Z,1203.75
2019-04-11T07:05:46.852Z,1198.13
2019-04-11T07:06:46.141Z,1209.38
2019-04-11T07:07:46.178Z,1209.38
2019-04-11T07:08:46.938Z,1186.88
2019-04-11T07:09:47.037Z,1175.63
2019-04-11T07:10:46.746Z,1186.88
2019-04-11T07:11:46.017Z,1186.88
2019-04-11T07:12:47.066Z,1198.13
2019-04-11T07:13:45.969Z,1231.88
2019-04-11T07:14:45.945Z,1243.13
2019-04-11T07:15:46.431Z,1260.00
2019-04-11T07:16:46.828Z,1271.25
2019-04-11T07:17:45.995Z,1231.88
2019-04-11T07:18:46.492Z,1209.38
2019-04-11T07:19:45.920Z,1181.25
2019-04-11T07:20:45.897Z,1153.13
2019-04-11T07:21:46.165Z,1147.50
2019-04-11T07:22:46.636Z,1192.50
2019-04-11T07:23:46.912Z,1209.38
2019-04-11T07:24:45.707Z,1248.75
2019-04-11T07:25:45.681Z,1305.00
2019-04-11T07:26:45.902Z,1316.25
2019-04-11T07:27:45.636Z,1282.50
2019-04-11T07:28:45.908Z,1231.88
2019-04-11T07:29:46.467Z,1254.38
2019-04-11T07:30:45.562Z,1276.88
2019-04-11T07:31:46.260Z,1316.25
2019-04-11T07:32:45.516Z,1282.50
2019-04-11T07:33:45.505Z,1327.50
2019-04-11T07:34:45.767Z,1372.50
2019-04-11T07:35:45.448Z,1383.75
2019-04-11T07:36:46.233Z,1372.50
2019-04-11T07:37:47.128Z,1395.00
2019-04-11T07:38:46.460Z,1434.38
2019-04-11T07:39:45.350Z,1440.00
2019-04-11T07:40:45.487Z,1434.38
2019-04-11T07:41:45.578Z,1434.38
2019-04-11T07:42:46.718Z,1417.50
2019-04-11T07:43:45.255Z,1423.13
2019-04-11T07:44:45.254Z,1445.63
2019-04-11T07:45:45.212Z,1462.50
2019-04-11T07:46:45.184Z,1456.88
2019-04-11T07:47:46.074Z,1451.25
2019-04-11T07:48:45.137Z,1456.88
2019-04-11T07:49:45.315Z,1462.50
2019-04-11T07:50:45.093Z,1428.75
2019-04-11T07:51:45.119Z,1378.13
2019-04-11T07:52:45.044Z,1338.75
2019-04-11T07:53:45.944Z,1316.25
2019-04-11T07:54:45.614Z,1310.63
2019-04-11T07:55:44.972Z,1344.38
2019-04-11T07:56:44.950Z,1400.63
2019-04-11T07:57:44.930Z,1428.75
2019-04-11T07:58:45.745Z,1468.13
2019-04-11T07:59:44.879Z,1507.50
2019-04-11T08:00:49.400Z,1501.88
2019-04-11T08:01:44.834Z,1541.25
2019-04-11T08:02:45.580Z,1580.63
2019-04-11T08:03:44.791Z,1625.63
2019-04-11T08:04:45.172Z,1665.00
2019-04-11T08:05:44.742Z,1676.25
2019-04-11T08:06:45.678Z,1676.25
2019-04-11T08:07:44.916Z,1693.13
2019-04-11T08:08:44.674Z,1732.50
2019-04-11T08:09:44.652Z,1766.25
2019-04-11T08:10:45.734Z,1794.38
2019-04-11T08:11:44.607Z,1496.25
2019-04-11T08:12:45.581Z,1771.88
2019-04-11T08:13:45.009Z,1254.38
2019-04-11T08:14:44.628Z,646.88
2019-04-11T08:15:44.513Z,1828.13
2019-04-11T08:16:44.913Z,1147.50
2019-04-11T08:17:44.613Z,798.75
2019-04-11T08:18:45.339Z,669.38
2019-04-11T08:19:44.423Z,624.38
2019-04-11T08:20:45.631Z,1845.00
2019-04-11T08:21:44.376Z,1704.38
2019-04-11T08:22:45.480Z,1569.38
2019-04-11T08:23:44.328Z,1524.38
2019-04-11T08:24:44.908Z,703.13
2019-04-11T08:25:45.243Z,624.38
2019-04-11T08:26:44.428Z,562.50
2019-04-11T08:27:54.692Z,556.88
2019-04-11T08:28:45.498Z,1440.00
2019-04-11T08:29:44.387Z,556.88
2019-04-11T08:30:44.159Z,579.38
2019-04-11T08:31:44.519Z,624.38
2019-04-11T08:32:44.299Z,798.75
2019-04-11T08:33:44.082Z,1153.13
2019-04-11T08:34:44.059Z,900.00
2019-04-11T08:35:44.110Z,2103.75
2019-04-11T08:36:44.226Z,2086.88
2019-04-11T08:37:43.983Z,871.88
2019-04-11T08:38:44.739Z,1968.75
2019-04-11T08:39:44.999Z,658.13
2019-04-11T08:40:45.082Z,630.00
2019-04-11T08:41:44.087Z,618.75
2019-04-11T08:42:43.856Z,635.63
2019-04-11T08:43:43.832Z,646.88
2019-04-11T08:44:43.878Z,2013.75
2019-04-11T08:45:44.451Z,2092.50
2019-04-11T08:46:44.750Z,1957.50
2019-04-11T08:47:47.586Z,714.38
2019-04-11T08:48:44.122Z,697.50
2019-04-11T08:49:43.741Z,1665.00
2019-04-11T08:50:44.725Z,832.50
2019-04-11T08:51:43.627Z,759.38
2019-04-11T08:52:44.401Z,776.25
2019-04-11T08:53:44.715Z,770.63
2019-04-11T08:54:43.838Z,720.00
2019-04-11T08:55:51.969Z,697.50
2019-04-11T08:56:43.498Z,675.00
2019-04-11T08:57:44.500Z,646.88
2019-04-11T08:58:43.446Z,658.13
2019-04-11T08:59:44.054Z,669.38
2019-04-11T09:00:43.393Z,675.00
2019-04-11T09:01:44.313Z,725.63
2019-04-11T09:02:43.340Z,652.50
2019-04-11T09:03:44.078Z,630.00
2019-04-11T09:04:43.297Z,618.75
2019-04-11T09:05:43.260Z,641.25
2019-04-11T09:06:43.238Z,1445.63
2019-04-11T09:07:43.545Z,2278.13
2019-04-11T09:08:43.178Z,2227.50
2019-04-11T09:09:43.255Z,2255.63
2019-04-11T09:10:44.073Z,776.25
2019-04-11T09:11:43.200Z,703.13
2019-04-11T09:12:43.073Z,697.50
2019-04-11T09:13:44.019Z,708.75
2019-04-11T09:14:44.306Z,736.88
2019-04-11T09:15:43.268Z,826.88
2019-04-11T09:16:42.966Z,770.63
2019-04-11T09:17:55.137Z,793.13
2019-04-11T09:18:43.953Z,815.63
2019-04-11T09:19:43.134Z,860.63
2019-04-11T09:20:43.422Z,888.75
2019-04-11T09:21:42.834Z,916.88
2019-04-11T09:22:42.814Z,928.13
2019-04-11T09:23:43.903Z,911.25
2019-04-11T09:24:43.177Z,894.38
2019-04-11T09:25:43.498Z,877.50
2019-04-11T09:26:42.702Z,855.00
2019-04-11T09:27:42.696Z,826.88
2019-04-11T09:28:43.932Z,798.75
2019-04-11T09:29:42.620Z,770.63
2019-04-11T09:30:43.111Z,742.50
2019-04-11T09:31:43.976Z,708.75
2019-04-11T09:32:42.549Z,697.50
2019-04-11T09:33:42.516Z,691.88
2019-04-11T09:34:42.489Z,697.50
2019-04-11T09:35:43.352Z,1006.88
2019-04-11T09:36:42.436Z,1580.63
2019-04-11T09:37:44.241Z,748.13
2019-04-11T09:38:42.406Z,759.38
2019-04-11T09:39:43.411Z,781.88
2019-04-11T09:40:42.328Z,810.00
2019-04-11T09:41:42.733Z,838.13
2019-04-11T09:42:43.077Z,877.50
2019-04-11T09:43:42.310Z,916.88
2019-04-11T09:44:42.225Z,939.38
2019-04-11T09:45:42.193Z,961.88
2019-04-11T09:46:42.814Z,967.50
2019-04-11T09:47:42.140Z,995.63
2019-04-11T09:48:42.393Z,1040.63
2019-04-11T09:49:42.961Z,1018.13
2019-04-11T09:50:42.729Z,1006.88
2019-04-11T09:51:42.306Z,995.63
2019-04-11T09:52:42.039Z,1035.00
2019-04-11T09:53:42.947Z,1040.63
2019-04-11T09:54:42.097Z,1980.00
2019-04-11T09:55:41.927Z,1063.13
2019-04-11T09:56:42.968Z,1057.50
2019-04-11T09:57:42.043Z,1080.00
2019-04-11T09:58:42.156Z,1096.88
2019-04-11T09:59:41.825Z,1186.88
2019-04-11T10:00:43.015Z,1625.63
2019-04-11T10:01:42.931Z,1248.75
2019-04-11T10:02:41.946Z,1170.00
2019-04-11T10:03:42.951Z,2790.00
2019-04-11T10:04:41.809Z,2778.75
2019-04-11T10:05:42.638Z,2086.88
2019-04-11T10:06:41.636Z,2851.88
2019-04-11T10:07:41.957Z,1175.63
2019-04-11T10:08:41.786Z,1018.13
2019-04-11T10:09:41.562Z,928.13
2019-04-11T10:10:43.417Z,877.50
2019-04-11T10:11:42.027Z,838.13
2019-04-11T10:12:42.561Z,810.00
2019-04-11T10:13:42.707Z,798.75
2019-04-11T10:14:41.814Z,787.50
2019-04-11T10:15:41.411Z,787.50
2019-04-11T10:16:42.286Z,793.13
2019-04-11T10:17:42.494Z,810.00
2019-04-11T10:18:42.744Z,821.25
2019-04-11T10:19:42.316Z,843.75
2019-04-11T10:20:42.523Z,866.25
2019-04-11T10:21:41.727Z,905.63
2019-04-11T10:22:41.233Z,950.63
2019-04-11T10:23:41.206Z,984.38
2019-04-11T10:24:41.179Z,1029.38
2019-04-11T10:25:41.155Z,1068.75
2019-04-11T10:26:42.334Z,1102.50
2019-04-11T10:27:41.105Z,1136.25
2019-04-11T10:28:41.764Z,1153.13
2019-04-11T10:29:41.797Z,1215.00
2019-04-11T10:30:41.993Z,1209.38
2019-04-11T10:31:42.228Z,1237.50
2019-04-11T10:32:41.392Z,1271.25
2019-04-11T10:33:41.426Z,1271.25
2019-04-11T10:34:41.741Z,1265.63
2019-04-11T10:35:40.896Z,1254.38
2019-04-11T10:36:41.046Z,1231.88
2019-04-11T10:37:42.099Z,1175.63
2019-04-11T10:38:40.819Z,1113.75
2019-04-11T10:39:41.694Z,1040.63
2019-04-11T10:40:41.925Z,978.75
2019-04-11T10:41:41.963Z,933.75
2019-04-11T10:42:40.720Z,928.13
2019-04-11T10:43:40.690Z,843.75
2019-04-11T10:44:40.665Z,826.88
2019-04-11T10:45:40.640Z,815.63
2019-04-11T10:46:41.686Z,798.75
2019-04-11T10:47:40.870Z,776.25
2019-04-11T10:48:44.818Z,753.75
2019-04-11T10:49:40.536Z,742.50
2019-04-11T10:50:40.514Z,736.88
2019-04-11T10:51:40.826Z,753.75
2019-04-11T10:52:40.462Z,776.25
2019-04-11T10:53:41.528Z,798.75
2019-04-11T10:54:40.814Z,826.88
2019-04-11T10:55:40.383Z,855.00
2019-04-11T10:56:41.177Z,877.50
2019-04-11T10:57:40.426Z,911.25
2019-04-11T10:58:40.708Z,950.63
2019-04-11T10:59:40.796Z,978.75
2019-04-11T11:00:40.252Z,1012.50
2019-04-11T11:01:40.249Z,1023.75
2019-04-11T11:02:40.199Z,1046.25
2019-04-11T11:03:40.174Z,1063.13
2019-04-11T11:04:41.010Z,1091.25
2019-04-11T11:05:40.208Z,1102.50
2019-04-11T11:06:40.093Z,1113.75
2019-04-11T11:07:40.574Z,1130.63
2019-04-11T11:08:40.042Z,1130.63
2019-04-11T11:09:40.016Z,1136.25
2019-04-11T11:10:39.991Z,1119.38
2019-04-11T11:11:40.852Z,1102.50
2019-04-11T11:12:39.942Z,1091.25
2019-04-11T11:13:40.767Z,1085.63
2019-04-11T11:14:39.888Z,1074.38
2019-04-11T11:15:39.959Z,1063.13
2019-04-11T11:16:42.860Z,1057.50
2019-04-11T11:18:00.956Z,1046.25
2019-04-11T11:19:07.542Z,1029.38
2019-04-11T11:19:50.114Z,1006.88
2019-04-11T11:20:47.690Z,995.63
2019-04-11T11:21:39.946Z,1012.50
2019-04-11T11:22:41.511Z,1023.75
2019-04-11T11:23:40.738Z,1046.25
2019-04-11T11:24:40.613Z,1074.38
2019-04-11T11:25:44.444Z,1125.00
2019-04-11T11:26:39.575Z,1136.25
2019-04-11T11:27:39.546Z,1170.00
2019-04-11T11:28:39.528Z,1186.88
2019-04-11T11:29:40.394Z,1215.00
2019-04-11T11:30:39.915Z,1254.38
2019-04-11T11:31:40.815Z,1282.50
2019-04-11T11:32:39.419Z,1310.63
2019-04-11T11:33:40.540Z,1344.38
2019-04-11T11:34:39.381Z,1395.00
2019-04-11T11:35:41.021Z,1406.25
2019-04-11T11:36:39.600Z,2086.88
2019-04-11T11:37:39.689Z,1496.25
2019-04-11T11:38:39.261Z,1501.88
2019-04-11T11:39:39.482Z,1546.88
2019-04-11T11:40:41.642Z,1468.13
2019-04-11T11:41:39.184Z,1451.25
2019-04-11T11:42:39.158Z,1451.25
2019-04-11T11:43:39.211Z,1451.25
2019-04-11T11:44:39.208Z,1456.88
2019-04-11T11:45:39.082Z,1428.75
2019-04-11T11:46:39.057Z,1361.25
2019-04-11T11:47:41.215Z,1333.13
2019-04-11T11:48:39.664Z,1299.38
2019-04-11T11:49:48.984Z,1254.38
2019-04-11T11:50:39.214Z,1237.50
2019-04-11T11:51:38.927Z,1215.00
2019-04-11T11:52:39.373Z,1198.13
2019-04-11T11:53:38.875Z,1175.63
2019-04-11T11:54:39.796Z,1170.00
2019-04-11T11:55:38.825Z,1153.13
2019-04-11T11:56:38.798Z,1136.25
2019-04-11T11:57:39.228Z,1136.25
2019-04-11T11:58:38.747Z,1125.00
2019-04-11T11:59:38.721Z,1119.38
2019-04-11T12:00:38.933Z,1136.25
2019-04-11T12:01:43.040Z,1141.88
2019-04-11T12:02:39.003Z,1170.00
2019-04-11T12:03:40.494Z,1209.38
2019-04-11T12:04:39.332Z,1265.63
2019-04-11T12:05:39.119Z,1316.25
2019-04-11T12:06:38.862Z,1361.25
2019-04-11T12:07:39.367Z,1395.00
2019-04-11T12:08:39.185Z,1428.75
2019-04-11T12:09:38.488Z,1693.13
2019-04-11T12:10:39.505Z,1726.88
2019-04-11T12:11:38.409Z,1670.63
2019-04-11T12:12:38.382Z,2542.50
2019-04-11T12:13:40.581Z,2705.63
2019-04-11T12:14:39.925Z,1400.63
2019-04-11T12:15:39.243Z,1327.50
2019-04-11T12:16:38.281Z,1271.25
2019-04-11T12:17:38.254Z,1203.75
2019-04-11T12:18:44.991Z,1136.25
2019-04-11T12:19:47.692Z,1040.63
2019-04-11T12:20:39.454Z,956.25
2019-04-11T12:21:38.877Z,911.25
2019-04-11T12:22:38.128Z,911.25
2019-04-11T12:23:50.510Z,922.50
2019-04-11T12:24:38.674Z,945.00
2019-04-11T12:25:38.990Z,978.75
2019-04-11T12:26:38.025Z,1001.25
2019-04-11T12:27:39.939Z,1023.75
2019-04-11T12:28:39.023Z,1029.38
2019-04-11T12:29:38.600Z,1029.38
2019-04-11T12:30:37.923Z,1068.75
2019-04-11T12:31:37.895Z,1006.88
2019-04-11T12:32:38.894Z,900.00
2019-04-11T12:33:37.848Z,821.25
2019-04-11T12:34:38.727Z,736.88
2019-04-11T12:35:38.021Z,675.00
2019-04-11T12:36:41.927Z,618.75
2019-04-11T12:37:37.914Z,568.13
2019-04-11T12:38:37.713Z,534.38
2019-04-11T12:39:37.689Z,506.25
2019-04-11T12:40:37.668Z,483.75
2019-04-11T12:41:37.635Z,466.88
2019-04-11T12:42:37.610Z,455.63